Kiapupe Airport


Codes: FZOF/
Name: Kiapupe Airport
City: Kiapupe
Country: Congo [DRC]
Elevation: 3281 ft.

Photos at Kiapupe Airport


   Photos courtesy of SpottingLog. You can add your own sightings and photos by signing up for a free trial today.



No photos found.

Weather at Kiapupe Airport


Time (UTC)DescriptionTempratureWindCloud coverageVisibilityPressureHumidity
21-Feb-2024 03:00Overcast Clouds21°C2 mph, NE94%10000m1009hPa98%
21-Feb-2024 06:00Overcast Clouds21°C2 mph, NE93%10000m1010hPa97%
21-Feb-2024 09:00Overcast Clouds28°C2 mph, NW97%10000m1009hPa66%
21-Feb-2024 12:00Overcast Clouds35°C2 mph, NW96%10000m1004hPa39%
21-Feb-2024 15:00Broken Clouds31°C4 mph, NW64%10000m1004hPa54%
21-Feb-2024 18:00Light Rain22°C2 mph, SE73%10000m1007hPa97%
21-Feb-2024 21:00Light Rain21°C2 mph, E99%10000m1008hPa98%
22-Feb-2024 00:00Light Rain21°C0 mph, SE100%10000m1007hPa99%
22-Feb-2024 03:00Light Rain20°C2 mph, E98%10000m1008hPa99%
22-Feb-2024 06:00Overcast Clouds23°C2 mph, NE98%10000m1010hPa95%
22-Feb-2024 09:00Overcast Clouds31°C0 mph, NW95%10000m1008hPa54%
22-Feb-2024 12:00Overcast Clouds35°C2 mph, N92%10000m1003hPa39%
22-Feb-2024 15:00Overcast Clouds33°C2 mph, NW86%10000m1002hPa49%
22-Feb-2024 18:00Broken Clouds25°C0 mph, NW67%10000m1006hPa78%
22-Feb-2024 21:00Moderate Rain22°C2 mph, S74%10000m1009hPa99%
23-Feb-2024 00:00Light Rain21°C2 mph, SE87%10000m1007hPa98%
23-Feb-2024 03:00Broken Clouds21°C2 mph, SE82%10000m1008hPa99%
23-Feb-2024 06:00Overcast Clouds23°C0 mph, SE85%10000m1010hPa94%
23-Feb-2024 09:00Overcast Clouds32°C2 mph, SW98%10000m1009hPa50%
23-Feb-2024 12:00Overcast Clouds35°C2 mph, NW89%10000m1005hPa39%
23-Feb-2024 15:00Light Rain28°C2 mph, SE99%10000m1004hPa66%
23-Feb-2024 18:00Light Rain22°C2 mph, SW88%10000m1009hPa99%
23-Feb-2024 21:00Light Rain21°C2 mph, SE100%10000m1010hPa100%
24-Feb-2024 00:00Overcast Clouds20°C2 mph, SE100%10000m1009hPa99%
24-Feb-2024 03:00Broken Clouds20°C0 mph, S81%10000m1010hPa99%
24-Feb-2024 06:00Light Rain22°C0 mph, S88%10000m1012hPa95%
24-Feb-2024 09:00Overcast Clouds31°C2 mph, SW92%10000m1011hPa50%
24-Feb-2024 12:00Broken Clouds34°C4 mph, W76%10000m1006hPa40%
24-Feb-2024 15:00Light Rain28°C0 mph, N76%10000m1005hPa69%
24-Feb-2024 18:00Moderate Rain21°C2 mph, S87%10000m1011hPa98%
24-Feb-2024 21:00Moderate Rain20°C2 mph, SE100%8622m1013hPa100%
25-Feb-2024 00:00Moderate Rain19°C2 mph, SE100%10000m1011hPa100%
25-Feb-2024 03:00Moderate Rain19°C2 mph, SE100%10000m1012hPa99%
25-Feb-2024 06:00Light Rain20°C0 mph, E100%10000m1014hPa98%
25-Feb-2024 09:00Light Rain28°C4 mph, W97%10000m1013hPa61%
25-Feb-2024 12:00Light Rain26°C2 mph, W98%6017m1010hPa91%
25-Feb-2024 15:00Light Rain24°C2 mph, SW100%10000m1008hPa95%
25-Feb-2024 18:00Light Rain22°C0 mph, W100%10000m1011hPa98%
25-Feb-2024 21:00Light Rain21°C0 mph, NE100%10000m1013hPa99%
26-Feb-2024 00:00Light Rain20°C0 mph, NE100%10000m1012hPa100%